航空気象通報

ウインドサーファーのための航空気象通報による風予報です。

7/28-29の航空気象通報(国内、海外)

2009年07月28日 21時26分03秒 | TAF
羽田空港
TAF RJTT 280847Z 2809/2912 20010KT 9999 FEW015 SCT020 BKN030
TEMPO 2813/2818 4000 -SHRA BR
TEMPO 2818/2824 3000 SHRA BR FEW006 BKN009 BKN012
日本時間29日18時-29日21時:200度から10ノットの風

但し、27日22時-28日09時の間:一時、

那覇空港
TAF ROAH 280835Z 2809/2912 18007KT 9999 FEW015
BECMG 2903/2906 33007KT
日本時間28日18時-29日12時:180度から7ノットの風
12-15時:風が変化
15-21時:330度から7ノットの風


マウイのカフルイ空港
PHOG 281132Z 2812/2912 04012KT P6SM VCSH FEW030 SCT050
FM281700 06012G20KT P6SM VCSH SCT035 BKN050
FM282000 06020G30KT P6SM FEW050
FM290600 04014KT P6SM FEW050
ハワイ時間28日02-07時:040度から12ノットの風

07-10時:060度から12ノット、突風20ノット

10-20時:060度から20ノット、突風30ノット
20時-29日02時:040度から14ノットの風


サイパン空港
PGSN 281125Z 2812/2912 12009KT P6SM VCSH SCT018
マリアナ時間28日22時-29日22時:120度から9ノットの風
ジャンル:
お天気
コメント   この記事についてブログを書く
« 7/27-28の航空気象通報(国内... | トップ | 7/29-30の航空気象通報(国内... »
最近の画像もっと見る

コメントを投稿

ブログ作成者から承認されるまでコメントは反映されません。

TAF」カテゴリの最新記事